sensor_id;sensor_type;location;lat;lon;timestamp;temperature;humidity
9544;DHT22;30418;51.45933468;7.33152330;2022-08-06T00:00:05;21.90;47.30
9544;DHT22;30418;51.45933468;7.33152330;2022-08-06T00:02:40;21.90;47.40
9544;DHT22;30418;51.45933468;7.33152330;2022-08-06T00:05:09;21.90;47.50
9544;DHT22;30418;51.45933468;7.33152330;2022-08-06T00:07:51;21.90;47.60
9544;DHT22;30418;51.45933468;7.33152330;2022-08-06T00:10:19;21.80;47.50
9544;DHT22;30418;51.45933468;7.33152330;2022-08-06T00:12:56;21.80;47.60
9544;DHT22;30418;51.45933468;7.33152330;2022-08-06T00:15:27;21.80;47.70
9544;DHT22;30418;51.45933468;7.33152330;2022-08-06T00:18:16;21.80;47.70
9544;DHT22;30418;51.45933468;7.33152330;2022-08-06T00:20:46;21.80;47.70
9544;DHT22;30418;51.45933468;7.33152330;2022-08-06T00:23:19;21.80;47.70
9544;DHT22;30418;51.45933468;7.33152330;2022-08-06T00:25:51;21.70;47.70
9544;DHT22;30418;51.45933468;7.33152330;2022-08-06T00:28:21;21.80;47.90
9544;DHT22;30418;51.45933468;7.33152330;2022-08-06T00:30:58;21.70;47.90
9544;DHT22;30418;51.45933468;7.33152330;2022-08-06T00:33:38;21.70;47.90
9544;DHT22;30418;51.45933468;7.33152330;2022-08-06T00:36:22;21.70;47.90
9544;DHT22;30418;51.45933468;7.33152330;2022-08-06T00:38:58;21.70;47.90
9544;DHT22;30418;51.45933468;7.33152330;2022-08-06T00:41:35;21.60;48.00
9544;DHT22;30418;51.45933468;7.33152330;2022-08-06T00:44:12;21.60;48.00
9544;DHT22;30418;51.45933468;7.33152330;2022-08-06T00:46:56;21.60;48.00
9544;DHT22;30418;51.45933468;7.33152330;2022-08-06T00:49:25;21.50;47.90
9544;DHT22;30418;51.45933468;7.33152330;2022-08-06T00:52:14;21.50;48.00
9544;DHT22;30418;51.45933468;7.33152330;2022-08-06T00:54:47;21.50;48.10
9544;DHT22;30418;51.45933468;7.33152330;2022-08-06T00:57:16;21.50;48.20
9544;DHT22;30418;51.45933468;7.33152330;2022-08-06T00:59:49;21.50;48.30
9544;DHT22;30418;51.45933468;7.33152330;2022-08-06T01:02:18;21.40;48.20
9544;DHT22;30418;51.45933468;7.33152330;2022-08-06T01:04:52;21.40;48.30
9544;DHT22;30418;51.45933468;7.33152330;2022-08-06T01:07:33;21.40;48.40
9544;DHT22;30418;51.45933468;7.33152330;2022-08-06T01:10:20;21.40;48.40
9544;DHT22;30418;51.45933468;7.33152330;2022-08-06T01:13:07;21.40;48.50
9544;DHT22;30418;51.45933468;7.33152330;2022-08-06T01:15:56;21.30;48.50
9544;DHT22;30418;51.45933468;7.33152330;2022-08-06T01:18:41;21.30;48.60
9544;DHT22;30418;51.45933468;7.33152330;2022-08-06T01:21:40;21.30;48.60
9544;DHT22;30418;51.45933468;7.33152330;2022-08-06T01:24:49;21.30;48.60
9544;DHT22;30418;51.45933468;7.33152330;2022-08-06T01:27:48;21.20;48.60
9544;DHT22;30418;51.45933468;7.33152330;2022-08-06T01:30:26;21.20;48.80
9544;DHT22;30418;51.45933468;7.33152330;2022-08-06T01:33:06;21.20;48.60
9544;DHT22;30418;51.45933468;7.33152330;2022-08-06T01:35:47;21.20;48.80
9544;DHT22;30418;51.45933468;7.33152330;2022-08-06T01:38:25;21.10;48.70
9544;DHT22;30418;51.45933468;7.33152330;2022-08-06T01:40:56;21.10;49.50
9544;DHT22;30418;51.45933468;7.33152330;2022-08-06T01:43:31;21.10;48.90
9544;DHT22;30418;51.45933468;7.33152330;2022-08-06T01:46:20;21.10;49.00
9544;DHT22;30418;51.45933468;7.33152330;2022-08-06T01:48:54;21.00;48.90
9544;DHT22;30418;51.45933468;7.33152330;2022-08-06T01:51:25;21.10;49.00
9544;DHT22;30418;51.45933468;7.33152330;2022-08-06T01:54:15;21.00;48.90
9544;DHT22;30418;51.45933468;7.33152330;2022-08-06T01:56:48;21.00;49.00
9544;DHT22;30418;51.45933468;7.33152330;2022-08-06T01:59:30;20.90;49.00
9544;DHT22;30418;51.45933468;7.33152330;2022-08-06T02:02:06;20.90;49.00
9544;DHT22;30418;51.45933468;7.33152330;2022-08-06T02:04:41;20.90;49.00
9544;DHT22;30418;51.45933468;7.33152330;2022-08-06T02:07:21;20.90;49.10
9544;DHT22;30418;51.45933468;7.33152330;2022-08-06T02:10:13;20.90;49.20
9544;DHT22;30418;51.45933468;7.33152330;2022-08-06T02:12:44;20.90;49.20
9544;DHT22;30418;51.45933468;7.33152330;2022-08-06T02:15:18;20.80;49.20
9544;DHT22;30418;51.45933468;7.33152330;2022-08-06T02:18:10;20.80;49.30
9544;DHT22;30418;51.45933468;7.33152330;2022-08-06T02:20:46;20.80;49.20
9544;DHT22;30418;51.45933468;7.33152330;2022-08-06T02:23:23;20.80;49.30
9544;DHT22;30418;51.45933468;7.33152330;2022-08-06T02:26:02;20.70;49.40
9544;DHT22;30418;51.45933468;7.33152330;2022-08-06T02:28:31;20.80;49.40
9544;DHT22;30418;51.45933468;7.33152330;2022-08-06T02:31:06;20.70;49.40
9544;DHT22;30418;51.45933468;7.33152330;2022-08-06T02:33:36;20.70;49.50
9544;DHT22;30418;51.45933468;7.33152330;2022-08-06T02:36:32;20.70;49.50
9544;DHT22;30418;51.45933468;7.33152330;2022-08-06T02:39:22;20.70;49.60
9544;DHT22;30418;51.45933468;7.33152330;2022-08-06T02:42:11;20.70;49.60
9544;DHT22;30418;51.45933468;7.33152330;2022-08-06T02:44:51;20.60;49.60
9544;DHT22;30418;51.45933468;7.33152330;2022-08-06T02:47:30;20.60;49.60
9544;DHT22;30418;51.45933468;7.33152330;2022-08-06T02:50:26;20.60;49.60
9544;DHT22;30418;51.45933468;7.33152330;2022-08-06T02:53:06;20.60;49.60
9544;DHT22;30418;51.45933468;7.33152330;2022-08-06T02:55:55;20.50;49.60
9544;DHT22;30418;51.45933468;7.33152330;2022-08-06T02:58:29;20.50;49.70
9544;DHT22;30418;51.45933468;7.33152330;2022-08-06T03:01:08;20.50;49.80
9544;DHT22;30418;51.45933468;7.33152330;2022-08-06T03:03:45;20.50;49.80
9544;DHT22;30418;51.45933468;7.33152330;2022-08-06T03:06:28;20.50;49.90
9544;DHT22;30418;51.45933468;7.33152330;2022-08-06T03:09:01;20.40;49.80
9544;DHT22;30418;51.45933468;7.33152330;2022-08-06T03:11:33;20.40;49.90
9544;DHT22;30418;51.45933468;7.33152330;2022-08-06T03:14:06;20.40;49.90
9544;DHT22;30418;51.45933468;7.33152330;2022-08-06T03:16:56;20.40;50.00
9544;DHT22;30418;51.45933468;7.33152330;2022-08-06T03:19:28;20.40;50.00
9544;DHT22;30418;51.45933468;7.33152330;2022-08-06T03:22:18;20.40;50.00
9544;DHT22;30418;51.45933468;7.33152330;2022-08-06T03:25:08;20.40;50.00
9544;DHT22;30418;51.45933468;7.33152330;2022-08-06T03:27:38;20.30;49.90
9544;DHT22;30418;51.45933468;7.33152330;2022-08-06T03:30:13;20.30;50.00
9544;DHT22;30418;51.45933468;7.33152330;2022-08-06T03:33:00;20.30;50.00
9544;DHT22;30418;51.45933468;7.33152330;2022-08-06T03:35:54;20.30;50.10
9544;DHT22;30418;51.45933468;7.33152330;2022-08-06T03:38:27;20.30;50.10
9544;DHT22;30418;51.45933468;7.33152330;2022-08-06T03:40:59;20.30;50.10
9544;DHT22;30418;51.45933468;7.33152330;2022-08-06T03:43:29;20.20;50.00
9544;DHT22;30418;51.45933468;7.33152330;2022-08-06T03:46:29;20.20;50.00
9544;DHT22;30418;51.45933468;7.33152330;2022-08-06T03:49:04;20.20;50.30
9544;DHT22;30418;51.45933468;7.33152330;2022-08-06T03:51:36;20.20;50.10
9544;DHT22;30418;51.45933468;7.33152330;2022-08-06T03:54:24;20.20;50.20
9544;DHT22;30418;51.45933468;7.33152330;2022-08-06T03:57:02;20.20;50.20
9544;DHT22;30418;51.45933468;7.33152330;2022-08-06T03:59:38;20.10;50.20
9544;DHT22;30418;51.45933468;7.33152330;2022-08-06T04:02:28;20.10;50.10
9544;DHT22;30418;51.45933468;7.33152330;2022-08-06T04:05:12;20.10;50.10
9544;DHT22;30418;51.45933468;7.33152330;2022-08-06T04:07:44;20.10;50.20
9544;DHT22;30418;51.45933468;7.33152330;2022-08-06T04:10:24;20.10;50.20
9544;DHT22;30418;51.45933468;7.33152330;2022-08-06T04:13:03;20.00;50.10
9544;DHT22;30418;51.45933468;7.33152330;2022-08-06T04:15:54;20.10;50.20
9544;DHT22;30418;51.45933468;7.33152330;2022-08-06T04:18:26;20.00;50.10
9544;DHT22;30418;51.45933468;7.33152330;2022-08-06T04:21:00;20.00;50.10
9544;DHT22;30418;51.45933468;7.33152330;2022-08-06T04:23:50;20.00;50.10
9544;DHT22;30418;51.45933468;7.33152330;2022-08-06T04:26:23;20.00;50.20
9544;DHT22;30418;51.45933468;7.33152330;2022-08-06T04:28:56;19.90;50.20
9544;DHT22;30418;51.45933468;7.33152330;2022-08-06T04:31:27;19.90;50.20
9544;DHT22;30418;51.45933468;7.33152330;2022-08-06T04:34:21;19.90;50.20
9544;DHT22;30418;51.45933468;7.33152330;2022-08-06T04:36:55;19.90;50.30
9544;DHT22;30418;51.45933468;7.33152330;2022-08-06T04:39:30;19.90;50.30
9544;DHT22;30418;51.45933468;7.33152330;2022-08-06T04:42:14;19.90;50.40
9544;DHT22;30418;51.45933468;7.33152330;2022-08-06T04:44:44;19.90;50.50
9544;DHT22;30418;51.45933468;7.33152330;2022-08-06T04:47:30;19.90;50.50
9544;DHT22;30418;51.45933468;7.33152330;2022-08-06T04:50:09;19.80;50.50
9544;DHT22;30418;51.45933468;7.33152330;2022-08-06T04:52:38;19.80;50.50
9544;DHT22;30418;51.45933468;7.33152330;2022-08-06T04:55:19;19.80;50.50
9544;DHT22;30418;51.45933468;7.33152330;2022-08-06T04:57:53;19.80;50.60
9544;DHT22;30418;51.45933468;7.33152330;2022-08-06T05:00:29;19.80;50.60
9544;DHT22;30418;51.45933468;7.33152330;2022-08-06T05:03:19;19.80;50.60
9544;DHT22;30418;51.45933468;7.33152330;2022-08-06T05:06:13;19.80;50.70
9544;DHT22;30418;51.45933468;7.33152330;2022-08-06T05:08:49;19.80;50.80
9544;DHT22;30418;51.45933468;7.33152330;2022-08-06T05:11:24;19.80;50.80
9544;DHT22;30418;51.45933468;7.33152330;2022-08-06T05:13:58;19.80;50.90
9544;DHT22;30418;51.45933468;7.33152330;2022-08-06T05:16:37;19.80;51.00
9544;DHT22;30418;51.45933468;7.33152330;2022-08-06T05:19:24;19.80;51.00
9544;DHT22;30418;51.45933468;7.33152330;2022-08-06T05:21:57;19.80;51.10
9544;DHT22;30418;51.45933468;7.33152330;2022-08-06T05:24:40;19.80;51.10
9544;DHT22;30418;51.45933468;7.33152330;2022-08-06T05:27:30;19.70;51.00
9544;DHT22;30418;51.45933468;7.33152330;2022-08-06T05:30:20;19.70;51.10
9544;DHT22;30418;51.45933468;7.33152330;2022-08-06T05:32:54;19.80;51.20
9544;DHT22;30418;51.45933468;7.33152330;2022-08-06T05:35:24;19.80;51.30
9544;DHT22;30418;51.45933468;7.33152330;2022-08-06T05:38:07;19.80;51.30
9544;DHT22;30418;51.45933468;7.33152330;2022-08-06T05:40:38;19.80;51.30
9544;DHT22;30418;51.45933468;7.33152330;2022-08-06T05:43:25;19.80;51.30
9544;DHT22;30418;51.45933468;7.33152330;2022-08-06T05:46:16;19.80;51.40
9544;DHT22;30418;51.45933468;7.33152330;2022-08-06T05:48:54;19.80;51.40
9544;DHT22;30418;51.45933468;7.33152330;2022-08-06T05:51:32;19.80;51.40
9544;DHT22;30418;51.45933468;7.33152330;2022-08-06T05:54:19;19.80;51.50
9544;DHT22;30418;51.45933468;7.33152330;2022-08-06T05:56:52;19.80;51.60
9544;DHT22;30418;51.45933468;7.33152330;2022-08-06T05:59:35;19.90;51.70
9544;DHT22;30418;51.45933468;7.33152330;2022-08-06T06:02:27;19.90;51.80
9544;DHT22;30418;51.45933468;7.33152330;2022-08-06T06:04:58;19.90;51.70
9544;DHT22;30418;51.45933468;7.33152330;2022-08-06T06:07:49;19.90;51.80
9544;DHT22;30418;51.45933468;7.33152330;2022-08-06T06:10:40;19.90;51.80
9544;DHT22;30418;51.45933468;7.33152330;2022-08-06T06:13:20;19.90;51.70
9544;DHT22;30418;51.45933468;7.33152330;2022-08-06T06:16:20;19.90;51.70
9544;DHT22;30418;51.45933468;7.33152330;2022-08-06T06:19:12;19.90;51.90
9544;DHT22;30418;51.45933468;7.33152330;2022-08-06T06:21:53;19.90;51.90
9544;DHT22;30418;51.45933468;7.33152330;2022-08-06T06:24:29;19.90;51.90
9544;DHT22;30418;51.45933468;7.33152330;2022-08-06T06:27:05;19.90;51.80
9544;DHT22;30418;51.45933468;7.33152330;2022-08-06T06:30:02;19.80;51.90
9544;DHT22;30418;51.45933468;7.33152330;2022-08-06T06:32:52;19.90;52.00
9544;DHT22;30418;51.45933468;7.33152330;2022-08-06T06:35:32;19.90;52.00
9544;DHT22;30418;51.45933468;7.33152330;2022-08-06T06:38:22;19.90;52.10
9544;DHT22;30418;51.45933468;7.33152330;2022-08-06T06:40:58;19.80;52.20
9544;DHT22;30418;51.45933468;7.33152330;2022-08-06T06:43:51;19.90;52.20
9544;DHT22;30418;51.45933468;7.33152330;2022-08-06T06:46:26;19.90;52.10
9544;DHT22;30418;51.45933468;7.33152330;2022-08-06T06:49:13;19.90;52.30
9544;DHT22;30418;51.45933468;7.33152330;2022-08-06T06:52:09;19.90;52.20
9544;DHT22;30418;51.45933468;7.33152330;2022-08-06T06:54:56;19.90;52.30
9544;DHT22;30418;51.45933468;7.33152330;2022-08-06T06:57:44;20.00;52.30
9544;DHT22;30418;51.45933468;7.33152330;2022-08-06T07:00:18;20.00;52.20
9544;DHT22;30418;51.45933468;7.33152330;2022-08-06T07:03:07;20.00;52.10
9544;DHT22;30418;51.45933468;7.33152330;2022-08-06T07:05:42;20.00;52.10
9544;DHT22;30418;51.45933468;7.33152330;2022-08-06T07:08:34;20.10;52.30
9544;DHT22;30418;51.45933468;7.33152330;2022-08-06T07:11:09;20.10;52.00
9544;DHT22;30418;51.45933468;7.33152330;2022-08-06T07:13:47;20.10;52.00
9544;DHT22;30418;51.45933468;7.33152330;2022-08-06T07:16:21;20.10;52.10
9544;DHT22;30418;51.45933468;7.33152330;2022-08-06T07:19:04;20.10;52.80
9544;DHT22;30418;51.45933468;7.33152330;2022-08-06T07:21:40;20.20;52.90
9544;DHT22;30418;51.45933468;7.33152330;2022-08-06T07:24:20;20.20;52.90
9544;DHT22;30418;51.45933468;7.33152330;2022-08-06T07:27:06;20.20;52.20
9544;DHT22;30418;51.45933468;7.33152330;2022-08-06T07:29:57;20.30;52.10
9544;DHT22;30418;51.45933468;7.33152330;2022-08-06T07:32:28;20.30;52.60
9544;DHT22;30418;51.45933468;7.33152330;2022-08-06T07:35:00;20.40;52.20
9544;DHT22;30418;51.45933468;7.33152330;2022-08-06T07:37:42;20.40;52.00
9544;DHT22;30418;51.45933468;7.33152330;2022-08-06T07:40:21;20.40;51.70
9544;DHT22;30418;51.45933468;7.33152330;2022-08-06T07:43:00;20.40;51.70
9544;DHT22;30418;51.45933468;7.33152330;2022-08-06T07:45:51;20.40;51.70
9544;DHT22;30418;51.45933468;7.33152330;2022-08-06T07:48:28;20.50;51.90
9544;DHT22;30418;51.45933468;7.33152330;2022-08-06T07:51:01;20.50;51.90
9544;DHT22;30418;51.45933468;7.33152330;2022-08-06T07:53:37;20.50;51.80
9544;DHT22;30418;51.45933468;7.33152330;2022-08-06T07:56:24;20.50;51.70
9544;DHT22;30418;51.45933468;7.33152330;2022-08-06T07:58:56;20.60;51.90
9544;DHT22;30418;51.45933468;7.33152330;2022-08-06T08:01:26;20.60;51.80
9544;DHT22;30418;51.45933468;7.33152330;2022-08-06T08:04:03;20.60;51.60
9544;DHT22;30418;51.45933468;7.33152330;2022-08-06T08:07:04;20.70;51.50
9544;DHT22;30418;51.45933468;7.33152330;2022-08-06T08:09:42;20.70;51.40
9544;DHT22;30418;51.45933468;7.33152330;2022-08-06T08:12:31;20.70;51.40
9544;DHT22;30418;51.45933468;7.33152330;2022-08-06T08:15:04;20.80;51.30
9544;DHT22;30418;51.45933468;7.33152330;2022-08-06T08:17:49;20.80;51.40
9544;DHT22;30418;51.45933468;7.33152330;2022-08-06T08:20:25;20.90;51.20
9544;DHT22;30418;51.45933468;7.33152330;2022-08-06T08:23:01;21.00;51.00
9544;DHT22;30418;51.45933468;7.33152330;2022-08-06T08:25:32;21.00;50.80
9544;DHT22;30418;51.45933468;7.33152330;2022-08-06T08:28:09;21.00;50.50
9544;DHT22;30418;51.45933468;7.33152330;2022-08-06T08:30:44;21.00;50.70
9544;DHT22;30418;51.45933468;7.33152330;2022-08-06T08:33:16;21.00;50.90
9544;DHT22;30418;51.45933468;7.33152330;2022-08-06T08:35:46;21.10;50.90
9544;DHT22;30418;51.45933468;7.33152330;2022-08-06T08:38:27;21.20;50.90
9544;DHT22;30418;51.45933468;7.33152330;2022-08-06T08:41:01;21.20;50.70
9544;DHT22;30418;51.45933468;7.33152330;2022-08-06T08:43:34;21.30;50.30
9544;DHT22;30418;51.45933468;7.33152330;2022-08-06T08:46:27;21.40;50.50
9544;DHT22;30418;51.45933468;7.33152330;2022-08-06T08:49:00;21.50;50.30
9544;DHT22;30418;51.45933468;7.33152330;2022-08-06T08:51:32;21.50;50.30
9544;DHT22;30418;51.45933468;7.33152330;2022-08-06T08:54:13;21.60;50.40
9544;DHT22;30418;51.45933468;7.33152330;2022-08-06T08:56:45;21.70;50.40
9544;DHT22;30418;51.45933468;7.33152330;2022-08-06T08:59:35;21.70;50.40
9544;DHT22;30418;51.45933468;7.33152330;2022-08-06T09:02:24;21.80;50.40
9544;DHT22;30418;51.45933468;7.33152330;2022-08-06T09:04:54;22.00;50.30
9544;DHT22;30418;51.45933468;7.33152330;2022-08-06T09:07:25;22.00;49.90
9544;DHT22;30418;51.45933468;7.33152330;2022-08-06T09:10:04;22.10;49.60
9544;DHT22;30418;51.45933468;7.33152330;2022-08-06T09:12:39;22.20;49.40
9544;DHT22;30418;51.45933468;7.33152330;2022-08-06T09:15:15;22.20;49.20
9544;DHT22;30418;51.45933468;7.33152330;2022-08-06T09:17:46;22.30;49.00
9544;DHT22;30418;51.45933468;7.33152330;2022-08-06T09:20:36;22.30;49.10
9544;DHT22;30418;51.45933468;7.33152330;2022-08-06T09:23:12;22.40;49.00
9544;DHT22;30418;51.45933468;7.33152330;2022-08-06T09:25:47;22.40;48.70
9544;DHT22;30418;51.45933468;7.33152330;2022-08-06T09:28:32;22.40;48.40
9544;DHT22;30418;51.45933468;7.33152330;2022-08-06T09:31:05;22.50;48.10
9544;DHT22;30418;51.45933468;7.33152330;2022-08-06T09:33:55;22.50;48.10
9544;DHT22;30418;51.45933468;7.33152330;2022-08-06T09:36:47;22.60;47.50
9544;DHT22;30418;51.45933468;7.33152330;2022-08-06T09:39:33;22.60;47.70
9544;DHT22;30418;51.45933468;7.33152330;2022-08-06T09:42:40;22.70;47.40
9544;DHT22;30418;51.45933468;7.33152330;2022-08-06T09:45:12;22.70;47.20
9544;DHT22;30418;51.45933468;7.33152330;2022-08-06T09:47:44;22.70;47.50
9544;DHT22;30418;51.45933468;7.33152330;2022-08-06T09:50:41;22.80;47.50
9544;DHT22;30418;51.45933468;7.33152330;2022-08-06T09:53:14;22.80;47.30
9544;DHT22;30418;51.45933468;7.33152330;2022-08-06T09:55:48;22.90;47.40
9544;DHT22;30418;51.45933468;7.33152330;2022-08-06T09:58:30;22.90;47.10
9544;DHT22;30418;51.45933468;7.33152330;2022-08-06T10:01:16;23.00;46.40
9544;DHT22;30418;51.45933468;7.33152330;2022-08-06T10:03:49;23.00;46.00
9544;DHT22;30418;51.45933468;7.33152330;2022-08-06T10:06:50;23.00;46.60
9544;DHT22;30418;51.45933468;7.33152330;2022-08-06T10:09:24;23.00;45.90
9544;DHT22;30418;51.45933468;7.33152330;2022-08-06T10:12:21;23.00;46.60
9544;DHT22;30418;51.45933468;7.33152330;2022-08-06T10:14:53;23.00;46.40
9544;DHT22;30418;51.45933468;7.33152330;2022-08-06T10:17:24;23.00;47.00
9544;DHT22;30418;51.45933468;7.33152330;2022-08-06T10:20:14;23.10;46.10
9544;DHT22;30418;51.45933468;7.33152330;2022-08-06T10:22:52;23.10;46.20
9544;DHT22;30418;51.45933468;7.33152330;2022-08-06T10:25:25;23.10;45.80
9544;DHT22;30418;51.45933468;7.33152330;2022-08-06T10:27:57;23.20;46.20
9544;DHT22;30418;51.45933468;7.33152330;2022-08-06T10:30:28;23.20;45.90
9544;DHT22;30418;51.45933468;7.33152330;2022-08-06T10:33:06;23.30;46.10
9544;DHT22;30418;51.45933468;7.33152330;2022-08-06T10:35:46;23.30;45.70
9544;DHT22;30418;51.45933468;7.33152330;2022-08-06T10:38:20;23.40;45.20
9544;DHT22;30418;51.45933468;7.33152330;2022-08-06T10:41:03;23.40;44.80
9544;DHT22;30418;51.45933468;7.33152330;2022-08-06T10:43:55;23.40;45.20
9544;DHT22;30418;51.45933468;7.33152330;2022-08-06T10:46:25;23.50;45.00
9544;DHT22;30418;51.45933468;7.33152330;2022-08-06T10:48:56;23.50;45.00
9544;DHT22;30418;51.45933468;7.33152330;2022-08-06T10:51:46;23.60;44.90
9544;DHT22;30418;51.45933468;7.33152330;2022-08-06T10:54:24;23.60;45.40
9544;DHT22;30418;51.45933468;7.33152330;2022-08-06T10:56:53;23.70;45.30
9544;DHT22;30418;51.45933468;7.33152330;2022-08-06T10:59:23;23.80;44.80
9544;DHT22;30418;51.45933468;7.33152330;2022-08-06T11:02:15;23.80;44.30
9544;DHT22;30418;51.45933468;7.33152330;2022-08-06T11:04:54;23.90;44.00
9544;DHT22;30418;51.45933468;7.33152330;2022-08-06T11:07:46;24.00;44.00
9544;DHT22;30418;51.45933468;7.33152330;2022-08-06T11:11:05;24.00;43.80
9544;DHT22;30418;51.45933468;7.33152330;2022-08-06T11:14:00;24.10;43.50
9544;DHT22;30418;51.45933468;7.33152330;2022-08-06T11:16:41;24.20;43.40
9544;DHT22;30418;51.45933468;7.33152330;2022-08-06T11:19:38;24.20;44.10
9544;DHT22;30418;51.45933468;7.33152330;2022-08-06T11:22:38;24.30;43.40
9544;DHT22;30418;51.45933468;7.33152330;2022-08-06T11:25:37;24.30;43.40
9544;DHT22;30418;51.45933468;7.33152330;2022-08-06T11:28:08;24.40;43.40
9544;DHT22;30418;51.45933468;7.33152330;2022-08-06T11:30:40;24.40;43.40
9544;DHT22;30418;51.45933468;7.33152330;2022-08-06T11:33:15;24.50;43.50
9544;DHT22;30418;51.45933468;7.33152330;2022-08-06T11:35:47;24.50;43.10
9544;DHT22;30418;51.45933468;7.33152330;2022-08-06T11:38:58;24.50;43.60
9544;DHT22;30418;51.45933468;7.33152330;2022-08-06T11:41:48;24.50;42.40
9544;DHT22;30418;51.45933468;7.33152330;2022-08-06T11:44:26;24.40;42.50
9544;DHT22;30418;51.45933468;7.33152330;2022-08-06T11:47:17;24.30;42.60
9544;DHT22;30418;51.45933468;7.33152330;2022-08-06T11:49:49;24.30;42.10
9544;DHT22;30418;51.45933468;7.33152330;2022-08-06T11:52:40;24.20;42.50
9544;DHT22;30418;51.45933468;7.33152330;2022-08-06T11:55:13;24.30;42.30
9544;DHT22;30418;51.45933468;7.33152330;2022-08-06T12:00:57;24.20;42.90
9544;DHT22;30418;51.45933468;7.33152330;2022-08-06T12:03:47;24.30;42.70
9544;DHT22;30418;51.45933468;7.33152330;2022-08-06T12:06:21;24.30;43.30
9544;DHT22;30418;51.45933468;7.33152330;2022-08-06T12:09:08;24.30;43.00
9544;DHT22;30418;51.45933468;7.33152330;2022-08-06T12:11:51;24.40;42.80
9544;DHT22;30418;51.45933468;7.33152330;2022-08-06T12:14:39;24.50;43.00
9544;DHT22;30418;51.45933468;7.33152330;2022-08-06T12:17:16;24.60;42.60
9544;DHT22;30418;51.45933468;7.33152330;2022-08-06T12:19:47;24.70;43.40
9544;DHT22;30418;51.45933468;7.33152330;2022-08-06T12:22:30;24.80;42.60
9544;DHT22;30418;51.45933468;7.33152330;2022-08-06T12:25:03;24.90;42.30
9544;DHT22;30418;51.45933468;7.33152330;2022-08-06T12:27:40;24.90;42.00
9544;DHT22;30418;51.45933468;7.33152330;2022-08-06T12:30:20;24.90;41.50
9544;DHT22;30418;51.45933468;7.33152330;2022-08-06T12:33:05;24.90;41.30
9544;DHT22;30418;51.45933468;7.33152330;2022-08-06T12:35:50;24.90;41.20
9544;DHT22;30418;51.45933468;7.33152330;2022-08-06T12:38:23;24.80;40.80
9544;DHT22;30418;51.45933468;7.33152330;2022-08-06T12:40:55;24.80;41.20
9544;DHT22;30418;51.45933468;7.33152330;2022-08-06T12:43:28;24.80;41.30
9544;DHT22;30418;51.45933468;7.33152330;2022-08-06T12:46:17;24.80;41.20
9544;DHT22;30418;51.45933468;7.33152330;2022-08-06T12:48:49;24.90;41.40
9544;DHT22;30418;51.45933468;7.33152330;2022-08-06T12:51:19;24.90;41.60
9544;DHT22;30418;51.45933468;7.33152330;2022-08-06T12:53:56;25.00;41.60
9544;DHT22;30418;51.45933468;7.33152330;2022-08-06T12:56:35;25.10;41.10
9544;DHT22;30418;51.45933468;7.33152330;2022-08-06T12:59:09;25.20;41.00
9544;DHT22;30418;51.45933468;7.33152330;2022-08-06T13:01:51;25.20;40.60
9544;DHT22;30418;51.45933468;7.33152330;2022-08-06T13:04:44;25.20;40.70
9544;DHT22;30418;51.45933468;7.33152330;2022-08-06T13:07:15;25.30;40.50
9544;DHT22;30418;51.45933468;7.33152330;2022-08-06T13:09:47;25.30;40.70
9544;DHT22;30418;51.45933468;7.33152330;2022-08-06T13:12:36;25.30;40.60
9544;DHT22;30418;51.45933468;7.33152330;2022-08-06T13:15:27;25.40;40.90
9544;DHT22;30418;51.45933468;7.33152330;2022-08-06T13:18:16;25.40;40.70
9544;DHT22;30418;51.45933468;7.33152330;2022-08-06T13:21:15;25.40;40.50
9544;DHT22;30418;51.45933468;7.33152330;2022-08-06T13:23:46;25.40;39.70
9544;DHT22;30418;51.45933468;7.33152330;2022-08-06T13:26:19;25.40;40.30
9544;DHT22;30418;51.45933468;7.33152330;2022-08-06T13:29:10;25.40;40.00
9544;DHT22;30418;51.45933468;7.33152330;2022-08-06T13:32:05;25.40;40.10
9544;DHT22;30418;51.45933468;7.33152330;2022-08-06T13:34:56;25.50;40.00
9544;DHT22;30418;51.45933468;7.33152330;2022-08-06T13:37:48;25.60;39.80
9544;DHT22;30418;51.45933468;7.33152330;2022-08-06T13:40:42;25.60;39.10
9544;DHT22;30418;51.45933468;7.33152330;2022-08-06T13:43:35;25.70;39.30
9544;DHT22;30418;51.45933468;7.33152330;2022-08-06T13:46:17;25.70;39.10
9544;DHT22;30418;51.45933468;7.33152330;2022-08-06T13:49:00;25.80;39.10
9544;DHT22;30418;51.45933468;7.33152330;2022-08-06T13:51:41;25.80;38.10
9544;DHT22;30418;51.45933468;7.33152330;2022-08-06T13:54:29;25.90;38.90
9544;DHT22;30418;51.45933468;7.33152330;2022-08-06T13:57:05;25.90;37.90
9544;DHT22;30418;51.45933468;7.33152330;2022-08-06T13:59:38;25.90;38.30
9544;DHT22;30418;51.45933468;7.33152330;2022-08-06T14:02:09;26.00;38.60
9544;DHT22;30418;51.45933468;7.33152330;2022-08-06T14:04:47;26.10;38.50
9544;DHT22;30418;51.45933468;7.33152330;2022-08-06T14:07:19;26.10;38.40
9544;DHT22;30418;51.45933468;7.33152330;2022-08-06T14:09:50;26.10;38.50
9544;DHT22;30418;51.45933468;7.33152330;2022-08-06T14:12:36;26.20;38.50
9544;DHT22;30418;51.45933468;7.33152330;2022-08-06T14:15:07;26.30;38.40
9544;DHT22;30418;51.45933468;7.33152330;2022-08-06T14:17:42;26.30;39.20
9544;DHT22;30418;51.45933468;7.33152330;2022-08-06T14:20:13;26.40;38.50
9544;DHT22;30418;51.45933468;7.33152330;2022-08-06T14:22:51;26.50;38.50
9544;DHT22;30418;51.45933468;7.33152330;2022-08-06T14:25:21;26.50;38.30
9544;DHT22;30418;51.45933468;7.33152330;2022-08-06T14:27:54;26.60;38.10
9544;DHT22;30418;51.45933468;7.33152330;2022-08-06T14:30:23;26.60;38.10
9544;DHT22;30418;51.45933468;7.33152330;2022-08-06T14:33:01;26.60;38.10
9544;DHT22;30418;51.45933468;7.33152330;2022-08-06T14:35:47;26.60;37.90
9544;DHT22;30418;51.45933468;7.33152330;2022-08-06T14:38:18;26.60;37.50
9544;DHT22;30418;51.45933468;7.33152330;2022-08-06T14:40:58;26.60;37.90
9544;DHT22;30418;51.45933468;7.33152330;2022-08-06T14:44:05;26.50;37.60
9544;DHT22;30418;51.45933468;7.33152330;2022-08-06T14:46:51;26.50;37.70
9544;DHT22;30418;51.45933468;7.33152330;2022-08-06T14:49:20;26.40;37.70